Time;durP1;ratioP1;P1;durP2;ratioP2;P2;SDS_P1;SDS_P2;PMS_P1;PMS_P2;Temp;Humidity;BMP_temperature;BMP_pressure;BME280_temperature;BME280_humidity;BME280_pressure;Samples;Min_cycle;Max_cycle;Signal;HPM_P1;HPM_P2
2022/12/20 00:01:28;;;;;;;10.15;5.43;;;9.30;99.90;;;;;;5101707;28;20070;-61
2022/12/20 00:03:56;;;;;;;12.52;6.35;;;9.30;99.90;;;;;;5068495;28;20457;-61
2022/12/20 00:06:22;;;;;;;9.38;5.20;;;9.30;99.90;;;;;;5065637;28;20132;-61
2022/12/20 00:08:56;;;;;;;7.65;5.40;;;9.30;99.90;;;;;;5114984;27;20042;-61
2022/12/20 00:11:23;;;;;;;7.47;5.25;;;9.30;99.90;;;;;;5087547;28;20088;-62
2022/12/20 00:13:49;;;;;;;10.27;5.68;;;9.30;99.90;;;;;;5064460;28;20286;-62
2022/12/20 00:16:18;;;;;;;9.93;5.00;;;9.30;99.90;;;;;;5065866;28;20577;-62
2022/12/20 00:18:44;;;;;;;8.73;5.05;;;9.30;99.90;;;;;;5091711;28;20118;-61
2022/12/20 00:21:12;;;;;;;7.70;5.28;;;9.30;99.90;;;;;;5088586;28;20113;-61
2022/12/20 00:23:39;;;;;;;8.43;4.70;;;9.30;99.90;;;;;;5075513;28;20395;-61
2022/12/20 00:26:10;;;;;;;8.93;5.22;;;9.30;99.90;;;;;;5087521;28;20122;-63
2022/12/20 00:28:37;;;;;;;9.93;5.85;;;9.30;99.90;;;;;;5091917;28;20380;-62
2022/12/20 00:31:04;;;;;;;9.25;4.70;;;9.30;99.90;;;;;;5102482;28;20542;-62
2022/12/20 00:33:31;;;;;;;9.65;5.05;;;9.30;99.90;;;;;;5089820;28;20096;-60
2022/12/20 00:35:57;;;;;;;6.70;4.32;;;9.20;99.90;;;;;;5089500;28;20694;-61
2022/12/20 00:38:24;;;;;;;6.40;4.47;;;9.40;99.90;;;;;;5071360;28;20038;-62
2022/12/20 00:41:03;;;;;;;9.70;4.90;;;9.40;99.90;;;;;;5077138;27;20039;-62
2022/12/20 00:43:29;;;;;;;10.75;4.70;;;9.40;99.90;;;;;;5088224;28;20040;-62
2022/12/20 00:45:55;;;;;;;12.80;4.75;;;9.40;99.90;;;;;;5086684;28;20043;-60
2022/12/20 00:48:21;;;;;;;8.63;4.70;;;9.40;99.90;;;;;;5087763;28;20445;-61
2022/12/20 00:50:47;;;;;;;7.82;5.10;;;9.40;99.90;;;;;;5056463;28;20062;-61
2022/12/20 00:53:12;;;;;;;10.98;5.22;;;9.30;99.90;;;;;;5081059;28;20126;-60
2022/12/20 00:55:45;;;;;;;7.70;4.22;;;9.40;99.90;;;;;;5083111;28;20119;-61
2022/12/20 00:58:12;;;;;;;7.72;4.70;;;9.40;99.90;;;;;;5090610;28;20502;-62
2022/12/20 01:00:38;;;;;;;11.00;4.95;;;9.40;99.90;;;;;;5082003;27;20031;-62
2022/12/20 01:03:04;;;;;;;6.95;4.78;;;9.40;99.90;;;;;;5077416;28;20043;-61
2022/12/20 01:05:30;;;;;;;7.65;4.40;;;9.40;99.90;;;;;;5091788;28;20406;-62
2022/12/20 01:07:56;;;;;;;6.32;4.38;;;9.40;99.90;;;;;;5070568;28;20149;-61
2022/12/20 01:10:22;;;;;;;7.85;4.72;;;9.40;99.90;;;;;;5094578;28;20040;-60
2022/12/20 01:12:47;;;;;;;10.43;5.03;;;9.40;99.90;;;;;;5072644;28;20047;-61
2022/12/20 01:15:14;;;;;;;8.07;4.60;;;9.40;99.90;;;;;;5080283;28;20032;-61
2022/12/20 01:17:40;;;;;;;7.43;4.50;;;9.40;99.90;;;;;;5092457;28;20262;-61
2022/12/20 01:20:06;;;;;;;6.93;4.25;;;9.40;99.90;;;;;;5066830;28;20394;-60
2022/12/20 01:22:32;;;;;;;9.30;4.22;;;9.40;99.90;;;;;;5062557;28;20040;-60
2022/12/20 01:24:58;;;;;;;8.30;4.82;;;9.40;99.90;;;;;;5085121;28;20054;-61
2022/12/20 01:27:23;;;;;;;8.75;4.53;;;9.40;99.90;;;;;;5083163;28;20040;-60
2022/12/20 01:29:50;;;;;;;6.00;4.05;;;9.40;99.90;;;;;;5068227;28;20036;-61
2022/12/20 01:32:15;;;;;;;6.60;4.28;;;9.40;99.90;;;;;;5078974;28;20462;-60
2022/12/20 01:34:41;;;;;;;12.38;5.63;;;9.40;99.90;;;;;;5083377;28;20138;-61
2022/12/20 01:37:07;;;;;;;6.55;4.60;;;9.40;99.90;;;;;;5084966;28;20046;-62
2022/12/20 01:39:33;;;;;;;7.82;4.07;;;9.40;99.90;;;;;;5081404;28;20045;-61
2022/12/20 01:41:58;;;;;;;9.85;4.30;;;9.40;99.90;;;;;;5085553;28;20039;-61
2022/12/20 01:44:24;;;;;;;8.73;4.50;;;9.40;99.90;;;;;;5081947;28;20046;-60
2022/12/20 01:46:51;;;;;;;7.78;4.43;;;9.40;99.90;;;;;;5083418;28;20047;-61
2022/12/20 01:49:41;;;;;;;9.20;4.63;;;9.40;99.90;;;;;;5084289;28;20098;-61
2022/12/20 01:52:42;;;;;;;5.55;4.07;;;9.40;99.90;;;;;;5079982;27;20052;-61
2022/12/20 01:55:15;;;;;;;7.80;4.45;;;9.40;99.90;;;;;;5062351;27;20074;-61
2022/12/20 01:57:57;;;;;;;7.53;4.53;;;9.40;99.90;;;;;;5087833;28;20233;-61
2022/12/20 02:00:23;;;;;;;6.00;4.03;;;9.40;99.90;;;;;;5085909;28;20119;-62
2022/12/20 02:02:49;;;;;;;9.32;4.45;;;9.30;99.90;;;;;;5087651;28;20122;-62
2022/12/20 02:05:17;;;;;;;6.60;4.20;;;9.40;99.90;;;;;;5085434;28;20040;-62
2022/12/20 02:07:45;;;;;;;8.38;4.43;;;9.40;99.90;;;;;;5082604;28;20411;-62
2022/12/20 02:10:14;;;;;;;6.63;4.65;;;9.40;99.90;;;;;;5066865;28;20559;-62
2022/12/20 02:12:43;;;;;;;7.32;4.60;;;9.40;99.90;;;;;;5084997;28;20052;-61
2022/12/20 02:15:28;;;;;;;5.30;3.97;;;9.40;99.90;;;;;;5102350;28;20482;-61
2022/12/20 02:18:17;;;;;;;8.05;4.10;;;9.40;99.90;;;;;;5076032;27;20031;-61
2022/12/20 02:21:11;;;;;;;6.32;4.32;;;9.40;99.90;;;;;;5080313;28;20044;-60
2022/12/20 02:23:54;;;;;;;8.17;4.40;;;9.40;99.90;;;;;;5087869;28;20036;-61
2022/12/20 02:26:44;;;;;;;5.38;4.00;;;9.40;99.90;;;;;;5107227;27;20069;-61
2022/12/20 02:29:35;;;;;;;9.10;4.40;;;9.50;99.90;;;;;;5068528;28;20054;-61
2022/12/20 02:32:15;;;;;;;9.27;4.38;;;9.50;99.90;;;;;;5087491;28;20051;-61
2022/12/20 02:34:41;;;;;;;7.18;4.18;;;9.50;99.90;;;;;;5082095;28;20044;-61
2022/12/20 02:37:08;;;;;;;9.90;5.00;;;9.50;99.90;;;;;;5088237;28;20059;-60
2022/12/20 02:39:37;;;;;;;7.90;4.50;;;9.50;99.90;;;;;;5064432;28;20036;-61
2022/12/20 02:42:07;;;;;;;8.13;4.22;;;9.40;99.90;;;;;;5087174;28;20122;-61
2022/12/20 02:47:29;;;;;;;7.82;4.43;;;9.40;99.90;;;;;;5107388;27;20096;-60
2022/12/20 02:49:56;;;;;;;6.10;4.28;;;9.40;99.90;;;;;;5067050;28;20051;-60
2022/12/20 02:52:25;;;;;;;7.80;4.32;;;9.40;99.90;;;;;;5088632;28;20043;-62
2022/12/20 02:54:53;;;;;;;10.50;5.07;;;9.40;99.90;;;;;;5101975;27;20040;-60
2022/12/20 02:57:30;;;;;;;6.65;4.05;;;9.40;99.90;;;;;;5056851;28;20086;-60
2022/12/20 03:00:18;;;;;;;7.63;5.15;;;9.40;99.90;;;;;;5068418;28;20043;-60
2022/12/20 03:05:31;;;;;;;7.15;4.10;;;9.40;99.90;;;;;;5089748;28;20036;-61
2022/12/20 03:07:59;;;;;;;7.22;4.25;;;9.40;99.90;;;;;;5072141;28;20052;-60
2022/12/20 03:10:25;;;;;;;7.60;4.80;;;9.40;99.90;;;;;;5090921;28;20461;-61
2022/12/20 03:12:51;;;;;;;7.93;4.45;;;9.40;99.90;;;;;;5074618;28;20484;-62
2022/12/20 03:15:17;;;;;;;8.10;4.80;;;9.40;99.90;;;;;;5076613;28;20081;-62
2022/12/20 03:17:42;;;;;;;8.18;4.47;;;9.40;99.90;;;;;;5096142;28;20069;-61
2022/12/20 03:20:10;;;;;;;7.53;4.25;;;9.40;99.90;;;;;;5083199;28;20042;-62
2022/12/20 03:22:36;;;;;;;8.00;4.38;;;9.40;99.90;;;;;;5089315;28;20403;-61
2022/12/20 03:25:02;;;;;;;6.88;4.65;;;9.40;99.90;;;;;;5086723;28;20051;-61
2022/12/20 03:27:28;;;;;;;8.00;4.60;;;9.40;99.90;;;;;;5069814;28;20100;-62
2022/12/20 03:29:53;;;;;;;5.78;4.40;;;9.40;99.90;;;;;;5078471;28;20067;-60
2022/12/20 03:32:20;;;;;;;8.85;4.40;;;9.50;99.90;;;;;;5057492;28;20113;-61
2022/12/20 03:34:46;;;;;;;8.25;4.53;;;9.40;99.90;;;;;;5071910;28;20051;-60
2022/12/20 03:37:11;;;;;;;7.75;4.70;;;9.50;99.90;;;;;;5074144;28;20104;-62
2022/12/20 03:39:37;;;;;;;7.53;4.35;;;9.50;99.90;;;;;;5100235;28;20093;-60
2022/12/20 03:42:03;;;;;;;9.43;4.20;;;9.40;99.90;;;;;;5070171;28;20039;-63
2022/12/20 03:44:28;;;;;;;7.15;4.60;;;9.50;99.90;;;;;;5103111;28;20123;-60
2022/12/20 03:46:54;;;;;;;7.28;4.57;;;9.50;99.90;;;;;;5088360;28;20082;-60
2022/12/20 03:49:20;;;;;;;7.18;5.03;;;9.50;99.90;;;;;;5087594;28;20512;-61
2022/12/20 03:51:45;;;;;;;8.20;4.78;;;9.50;99.90;;;;;;5065062;28;20092;-61
2022/12/20 03:54:11;;;;;;;11.05;4.90;;;9.50;99.90;;;;;;5092409;28;20036;-60
2022/12/20 03:56:37;;;;;;;8.25;5.05;;;9.50;99.90;;;;;;5087193;28;20047;-60
2022/12/20 03:59:03;;;;;;;5.75;4.50;;;9.50;99.90;;;;;;5076098;27;20569;-61
2022/12/20 04:01:29;;;;;;;7.75;4.47;;;9.60;99.90;;;;;;5068853;28;20055;-61
2022/12/20 04:03:55;;;;;;;8.95;4.57;;;9.50;99.90;;;;;;5076337;28;20032;-61
2022/12/20 04:06:22;;;;;;;8.55;4.70;;;9.60;99.90;;;;;;5068798;28;20039;-60
2022/12/20 04:08:48;;;;;;;8.27;4.97;;;9.50;99.90;;;;;;5085411;28;20044;-61
2022/12/20 04:11:16;;;;;;;9.70;4.78;;;9.60;99.90;;;;;;5104077;28;20189;-61
2022/12/20 04:13:50;;;;;;;8.52;4.70;;;9.60;99.90;;;;;;5102466;28;20040;-61
2022/12/20 04:16:19;;;;;;;10.45;5.40;;;9.60;99.90;;;;;;5084712;28;20316;-62
2022/12/20 04:18:45;;;;;;;10.00;5.10;;;9.60;99.90;;;;;;5081665;28;20189;-62
2022/12/20 04:21:11;;;;;;;8.00;5.00;;;9.60;99.90;;;;;;5082324;28;20387;-62
2022/12/20 04:23:39;;;;;;;8.73;5.28;;;9.60;99.90;;;;;;5083716;28;20464;-61
2022/12/20 04:26:07;;;;;;;10.20;4.85;;;9.60;99.90;;;;;;5088511;28;20046;-60
2022/12/20 04:28:33;;;;;;;8.25;5.10;;;9.60;99.90;;;;;;5064443;28;20043;-62
2022/12/20 04:30:59;;;;;;;7.05;5.28;;;9.60;99.90;;;;;;5086819;28;20042;-62
2022/12/20 04:33:25;;;;;;;9.80;5.18;;;9.60;99.90;;;;;;5079448;28;20051;-61
2022/12/20 04:35:52;;;;;;;8.85;4.88;;;9.60;99.90;;;;;;5091405;28;20162;-60
2022/12/20 04:38:19;;;;;;;6.75;4.97;;;9.70;99.90;;;;;;5099010;27;20032;-61
2022/12/20 04:40:51;;;;;;;9.32;5.32;;;9.60;99.90;;;;;;5102205;28;20028;-61
2022/12/20 04:43:18;;;;;;;7.20;5.60;;;9.60;99.90;;;;;;5067114;28;20039;-62
2022/12/20 04:45:47;;;;;;;6.80;5.43;;;9.60;99.90;;;;;;5063959;28;20261;-62
2022/12/20 04:48:13;;;;;;;8.07;4.78;;;9.70;99.90;;;;;;5064751;28;20062;-60
2022/12/20 04:50:39;;;;;;;7.90;4.72;;;9.70;99.90;;;;;;5085420;28;20047;-61
2022/12/20 04:55:49;;;;;;;6.70;4.82;;;9.50;99.90;;;;;;5100515;28;20359;-61
2022/12/20 04:58:15;;;;;;;7.80;4.90;;;9.70;99.90;;;;;;5083100;28;20042;-61
2022/12/20 05:00:41;;;;;;;7.20;5.53;;;9.70;99.90;;;;;;5054185;28;20423;-61
2022/12/20 05:03:07;;;;;;;10.27;5.55;;;9.70;99.90;;;;;;5082696;28;20085;-61
2022/12/20 05:05:33;;;;;;;10.57;4.90;;;9.70;99.90;;;;;;5073480;28;20222;-61
2022/12/20 05:07:58;;;;;;;8.32;5.20;;;9.70;99.90;;;;;;5103315;28;20061;-61
2022/12/20 05:10:24;;;;;;;8.65;4.90;;;9.70;99.90;;;;;;5100765;28;20067;-60
2022/12/20 05:12:50;;;;;;;8.27;5.10;;;9.70;99.90;;;;;;5085096;28;20051;-60
2022/12/20 05:15:16;;;;;;;7.90;4.72;;;9.70;99.90;;;;;;5080251;28;20039;-60
2022/12/20 05:17:42;;;;;;;8.77;5.25;;;9.80;99.90;;;;;;5089644;28;20036;-61
2022/12/20 05:20:08;;;;;;;7.43;4.25;;;9.80;99.90;;;;;;5085676;28;20172;-61
2022/12/20 05:28:02;;;;;;;;;;;9.80;99.90;;;;;;5083102;28;20047;-60
2022/12/20 05:30:28;;;;;;;8.15;4.60;;;9.80;99.90;;;;;;5083100;22;19936;-62
2022/12/20 05:32:54;;;;;;;6.75;4.60;;;9.80;99.90;;;;;;5032452;28;20060;-61
2022/12/20 05:35:20;;;;;;;8.57;4.78;;;9.90;99.90;;;;;;5034232;28;20037;-61
2022/12/20 05:37:46;;;;;;;10.43;4.53;;;9.80;99.90;;;;;;5016230;28;20282;-60
2022/12/20 05:40:12;;;;;;;5.80;4.65;;;9.90;99.90;;;;;;5032640;28;20395;-60
2022/12/20 05:42:37;;;;;;;7.95;5.38;;;9.80;99.90;;;;;;5032329;28;20056;-58
2022/12/20 05:45:04;;;;;;;8.85;4.95;;;9.90;99.90;;;;;;5039496;28;20033;-59
2022/12/20 05:47:32;;;;;;;8.15;4.68;;;9.90;99.90;;;;;;5041359;28;20040;-62
2022/12/20 05:50:02;;;;;;;7.57;4.55;;;9.90;99.90;;;;;;5024913;28;20526;-60
2022/12/20 05:52:29;;;;;;;5.82;4.10;;;9.90;99.90;;;;;;5030625;28;20044;-60
2022/12/20 05:54:55;;;;;;;7.50;4.38;;;9.90;99.90;;;;;;5002464;28;20044;-61
2022/12/20 05:57:21;;;;;;;9.65;4.40;;;9.90;99.90;;;;;;5019821;28;20906;-61
2022/12/20 05:59:47;;;;;;;8.00;4.30;;;9.90;99.90;;;;;;5036450;28;20029;-59
2022/12/20 06:02:13;;;;;;;8.27;4.47;;;9.90;99.90;;;;;;5032675;28;20064;-60
2022/12/20 06:04:39;;;;;;;7.38;4.80;;;9.90;99.90;;;;;;5025258;28;20045;-61
2022/12/20 06:07:05;;;;;;;7.28;4.22;;;9.90;99.90;;;;;;5030932;28;20498;-61
2022/12/20 06:09:31;;;;;;;13.07;5.03;;;10.00;99.90;;;;;;5029722;28;20289;-61
2022/12/20 06:11:58;;;;;;;8.35;4.82;;;9.90;99.90;;;;;;5037056;28;20220;-59
2022/12/20 06:14:24;;;;;;;9.05;4.32;;;10.00;99.90;;;;;;5033543;28;20308;-60
2022/12/20 06:16:50;;;;;;;6.97;4.45;;;10.00;99.90;;;;;;5018883;28;20404;-60
2022/12/20 06:19:16;;;;;;;6.97;4.22;;;10.00;99.90;;;;;;5032615;28;20041;-60
2022/12/20 06:21:41;;;;;;;7.45;4.50;;;10.00;99.90;;;;;;5021532;28;20517;-60
2022/12/20 06:24:07;;;;;;;8.43;4.18;;;10.00;99.90;;;;;;5029430;28;20091;-61
2022/12/20 06:26:36;;;;;;;6.90;3.90;;;10.00;99.90;;;;;;5036681;28;20760;-60
2022/12/20 06:29:05;;;;;;;7.82;4.15;;;10.10;99.90;;;;;;5036669;28;20049;-60
2022/12/20 06:31:32;;;;;;;7.55;4.50;;;10.10;99.90;;;;;;5019748;28;20044;-61
2022/12/20 06:33:58;;;;;;;7.20;4.45;;;10.10;99.90;;;;;;5041129;28;20037;-60
2022/12/20 06:36:24;;;;;;;9.25;4.63;;;10.10;99.90;;;;;;5037215;28;20041;-60
2022/12/20 06:38:50;;;;;;;7.07;4.30;;;10.10;99.90;;;;;;5024043;28;20037;-61
2022/12/20 06:41:16;;;;;;;7.30;4.60;;;10.10;99.90;;;;;;5020561;28;20041;-62
2022/12/20 06:43:41;;;;;;;7.45;4.55;;;10.20;99.90;;;;;;5035992;28;20176;-61
2022/12/20 06:46:07;;;;;;;8.30;4.60;;;10.20;99.90;;;;;;5036707;28;20167;-60
2022/12/20 06:48:33;;;;;;;9.07;4.78;;;10.20;99.90;;;;;;5038777;28;20049;-61
2022/12/20 06:50:58;;;;;;;7.20;5.07;;;10.20;99.90;;;;;;5036040;28;20037;-61
2022/12/20 06:53:24;;;;;;;9.65;5.00;;;10.20;99.90;;;;;;5053953;28;20041;-61
2022/12/20 06:55:50;;;;;;;7.88;4.68;;;10.20;99.90;;;;;;5020596;28;20045;-60
2022/12/20 06:58:20;;;;;;;8.38;5.55;;;10.20;99.90;;;;;;5038193;28;20045;-61
2022/12/20 07:00:46;;;;;;;7.50;5.45;;;10.20;99.90;;;;;;5037201;28;20047;-60
2022/12/20 07:03:12;;;;;;;9.57;5.75;;;10.20;99.90;;;;;;5034904;28;20053;-60
2022/12/20 07:05:39;;;;;;;7.15;5.18;;;10.20;99.90;;;;;;5034080;28;20569;-62
2022/12/20 07:08:05;;;;;;;8.82;5.57;;;10.10;99.90;;;;;;5021376;28;20071;-62
2022/12/20 07:10:35;;;;;;;9.98;5.38;;;10.10;99.90;;;;;;5005744;28;20092;-60
2022/12/20 07:13:00;;;;;;;9.52;5.70;;;10.20;99.90;;;;;;5031834;28;20484;-59
2022/12/20 07:15:26;;;;;;;9.40;6.05;;;10.10;99.90;;;;;;5032798;28;20040;-61
2022/12/20 07:17:52;;;;;;;7.65;5.95;;;10.20;99.90;;;;;;5057865;28;20088;-60
2022/12/20 07:20:18;;;;;;;6.57;5.60;;;10.10;99.90;;;;;;5036909;28;20056;-61
2022/12/20 07:22:46;;;;;;;8.60;6.63;;;10.10;99.90;;;;;;5038175;28;20805;-61
2022/12/20 07:25:12;;;;;;;9.27;6.13;;;10.10;99.90;;;;;;5035675;28;20048;-61
2022/12/20 07:27:38;;;;;;;11.95;5.72;;;10.10;99.90;;;;;;5040214;28;20041;-60
2022/12/20 07:30:05;;;;;;;11.63;6.07;;;10.10;99.90;;;;;;5038496;28;20127;-60
2022/12/20 07:32:31;;;;;;;8.57;6.10;;;10.10;99.90;;;;;;5042365;28;20033;-61
2022/12/20 07:34:57;;;;;;;8.57;5.97;;;10.10;99.90;;;;;;5040507;28;20201;-61
2022/12/20 07:37:23;;;;;;;10.45;5.70;;;10.20;99.90;;;;;;5021695;28;20055;-60
2022/12/20 07:39:48;;;;;;;8.65;5.88;;;10.10;99.90;;;;;;5020270;28;20043;-60
2022/12/20 07:42:14;;;;;;;8.55;6.22;;;10.10;99.90;;;;;;5020746;28;20053;-60
2022/12/20 07:44:39;;;;;;;10.90;6.63;;;10.10;99.90;;;;;;5021638;28;20037;-62
2022/12/20 07:47:05;;;;;;;9.50;6.35;;;10.10;99.90;;;;;;5038864;28;20037;-61
2022/12/20 07:49:31;;;;;;;11.68;5.95;;;10.10;99.90;;;;;;5039119;28;20154;-60
2022/12/20 07:52:00;;;;;;;8.75;5.82;;;10.20;99.90;;;;;;5035169;28;20037;-60
2022/12/20 07:54:32;;;;;;;7.63;5.63;;;10.10;99.90;;;;;;5037679;28;20420;-60
2022/12/20 07:57:00;;;;;;;6.97;5.40;;;10.20;99.90;;;;;;5037251;28;20099;-60
2022/12/20 07:59:35;;;;;;;9.45;5.80;;;10.20;99.90;;;;;;5020240;28;20049;-61
2022/12/20 08:02:01;;;;;;;9.60;6.03;;;10.20;99.90;;;;;;5024952;28;20114;-61
2022/12/20 08:04:29;;;;;;;9.90;6.13;;;10.20;99.90;;;;;;5037983;28;20492;-61
2022/12/20 08:06:57;;;;;;;7.82;5.15;;;10.20;99.90;;;;;;5029070;28;20272;-62
2022/12/20 08:09:27;;;;;;;10.35;5.93;;;10.20;99.90;;;;;;5021616;28;20116;-61
2022/12/20 08:11:53;;;;;;;9.73;5.88;;;10.20;99.90;;;;;;5038406;28;20044;-61
2022/12/20 08:14:20;;;;;;;6.47;4.97;;;10.20;99.90;;;;;;5040169;28;20033;-61
2022/12/20 08:16:46;;;;;;;8.57;5.50;;;10.20;99.90;;;;;;5036975;28;20040;-61
2022/12/20 08:19:12;;;;;;;8.40;5.60;;;10.20;99.90;;;;;;5028255;28;20405;-62
2022/12/20 08:21:37;;;;;;;7.38;5.05;;;10.10;99.90;;;;;;5037667;28;20523;-60
2022/12/20 08:24:04;;;;;;;7.95;5.70;;;10.20;99.90;;;;;;5017438;28;20531;-60
2022/12/20 08:26:29;;;;;;;6.55;4.85;;;10.20;99.90;;;;;;5019800;28;20041;-60
2022/12/20 08:28:55;;;;;;;7.90;4.90;;;10.30;99.90;;;;;;5028738;28;20060;-60
2022/12/20 08:31:21;;;;;;;7.15;5.18;;;10.20;99.90;;;;;;5033206;28;20060;-60
2022/12/20 08:33:46;;;;;;;8.85;4.60;;;10.20;99.90;;;;;;5020108;28;20473;-58
2022/12/20 08:36:13;;;;;;;10.02;4.95;;;10.30;99.90;;;;;;5026188;28;20550;-61
2022/12/20 08:38:39;;;;;;;6.38;4.80;;;10.30;99.90;;;;;;5033500;28;20043;-61
2022/12/20 08:41:11;;;;;;;6.60;4.30;;;10.30;99.90;;;;;;5037969;28;20041;-60
2022/12/20 08:43:38;;;;;;;9.48;4.82;;;10.30;99.90;;;;;;5049968;28;20045;-61
2022/12/20 08:46:05;;;;;;;5.93;4.32;;;10.30;99.90;;;;;;5033082;28;20048;-62
2022/12/20 08:48:31;;;;;;;6.60;4.50;;;10.30;99.90;;;;;;5031061;28;20037;-60
2022/12/20 08:51:00;;;;;;;5.57;4.47;;;10.30;99.90;;;;;;5038220;28;20045;-61
2022/12/20 08:53:26;;;;;;;9.07;4.15;;;10.30;99.90;;;;;;5034666;28;20040;-60
2022/12/20 08:55:52;;;;;;;8.00;4.43;;;10.30;99.90;;;;;;5036722;28;20500;-61
2022/12/20 08:58:19;;;;;;;8.18;4.00;;;10.30;99.90;;;;;;5019357;28;20056;-59
2022/12/20 09:00:45;;;;;;;7.18;3.65;;;10.30;99.90;;;;;;5019304;28;20045;-61
2022/12/20 09:03:12;;;;;;;7.13;3.95;;;10.30;99.90;;;;;;5034794;28;20052;-61
2022/12/20 09:05:47;;;;;;;7.38;3.58;;;10.30;99.90;;;;;;5033861;28;20114;-61
2022/12/20 09:08:15;;;;;;;9.23;4.22;;;10.40;99.90;;;;;;5036240;28;20045;-62
2022/12/20 09:10:42;;;;;;;7.85;4.18;;;10.40;99.90;;;;;;5027573;28;20850;-62
2022/12/20 09:13:08;;;;;;;5.72;4.10;;;10.40;99.90;;;;;;5025780;28;20052;-62
2022/12/20 09:15:35;;;;;;;7.03;3.97;;;10.40;99.90;;;;;;5025894;28;20380;-61
2022/12/20 09:18:00;;;;;;;7.82;3.72;;;10.40;99.90;;;;;;5034434;28;20033;-60
2022/12/20 09:20:27;;;;;;;5.65;3.30;;;10.40;99.90;;;;;;5019233;28;20121;-60
2022/12/20 09:22:53;;;;;;;5.97;3.67;;;10.40;99.90;;;;;;5020714;28;20127;-60
2022/12/20 09:25:19;;;;;;;11.82;5.13;;;10.50;99.90;;;;;;5017369;28;20178;-61
2022/12/20 09:27:44;;;;;;;8.65;4.25;;;10.50;99.90;;;;;;5015361;28;20045;-61
2022/12/20 09:30:11;;;;;;;7.82;3.67;;;10.50;99.90;;;;;;5058627;28;20109;-61
2022/12/20 09:32:36;;;;;;;7.60;3.35;;;10.50;99.90;;;;;;5004820;28;20045;-60
2022/12/20 09:35:03;;;;;;;5.88;3.10;;;10.50;99.90;;;;;;5035841;28;20049;-61
2022/12/20 09:37:31;;;;;;;8.27;3.50;;;10.50;99.90;;;;;;5036566;28;20049;-61
2022/12/20 09:39:56;;;;;;;6.90;3.30;;;10.50;99.90;;;;;;5040152;28;20060;-61
2022/12/20 09:42:27;;;;;;;7.20;3.42;;;10.50;99.90;;;;;;5030639;28;20523;-61
2022/12/20 09:45:00;;;;;;;6.53;3.25;;;10.50;99.90;;;;;;5036143;28;20068;-59
2022/12/20 09:47:26;;;;;;;5.78;3.28;;;10.60;99.90;;;;;;5054538;28;20075;-62
2022/12/20 09:49:55;;;;;;;8.93;3.40;;;10.60;99.90;;;;;;5038599;28;20080;-62
2022/12/20 09:52:30;;;;;;;7.10;3.33;;;10.60;99.90;;;;;;5023310;28;20037;-61
2022/12/20 09:55:11;;;;;;;7.05;3.50;;;10.60;99.90;;;;;;5031312;28;20503;-60
2022/12/20 09:58:25;;;;;;;5.97;3.55;;;10.60;99.90;;;;;;5039148;28;20033;-61
2022/12/20 10:00:51;;;;;;;5.60;3.40;;;10.60;99.90;;;;;;4994662;28;20108;-61
2022/12/20 10:03:30;;;;;;;5.25;3.17;;;10.60;99.90;;;;;;5034893;28;20045;-62
2022/12/20 10:06:06;;;;;;;6.85;3.75;;;10.60;99.90;;;;;;5034446;28;20517;-62
2022/12/20 10:08:55;;;;;;;5.78;3.33;;;10.60;99.90;;;;;;5036985;28;20411;-61
2022/12/20 10:11:38;;;;;;;5.25;2.95;;;10.60;99.90;;;;;;5037643;28;20044;-61
2022/12/20 10:14:27;;;;;;;6.47;3.45;;;10.60;99.90;;;;;;5037182;28;20036;-61
2022/12/20 10:17:16;;;;;;;7.40;3.33;;;10.60;99.90;;;;;;5037328;28;20050;-61
2022/12/20 10:19:56;;;;;;;7.97;3.05;;;10.60;99.90;;;;;;5031107;28;20045;-61
2022/12/20 10:22:35;;;;;;;5.60;3.35;;;10.60;99.90;;;;;;5027308;28;20128;-62
2022/12/20 10:25:22;;;;;;;8.30;3.42;;;10.60;99.90;;;;;;5037336;28;20052;-62
2022/12/20 10:27:51;;;;;;;5.00;3.17;;;10.60;99.90;;;;;;5039134;28;20071;-60
2022/12/20 10:30:21;;;;;;;6.00;3.13;;;10.60;99.90;;;;;;5016168;28;20048;-61
2022/12/20 10:32:50;;;;;;;7.70;3.45;;;10.60;99.90;;;;;;5036991;28;20033;-60
2022/12/20 10:35:36;;;;;;;5.82;3.40;;;10.60;99.90;;;;;;5031131;28;20048;-62
2022/12/20 10:38:11;;;;;;;6.45;3.05;;;10.60;99.90;;;;;;5022028;28;20040;-61
2022/12/20 10:40:43;;;;;;;5.30;3.13;;;10.60;99.90;;;;;;5039966;28;20065;-62
2022/12/20 10:43:21;;;;;;;5.82;3.28;;;10.70;99.90;;;;;;5032517;28;20579;-61
2022/12/20 10:46:07;;;;;;;7.15;3.70;;;10.70;99.90;;;;;;5033682;28;20283;-61
2022/12/20 10:48:38;;;;;;;6.60;3.10;;;10.70;99.90;;;;;;5021534;28;20102;-61
2022/12/20 10:51:19;;;;;;;7.53;2.92;;;10.70;99.90;;;;;;5035117;28;20518;-61
2022/12/20 10:54:21;;;;;;;6.25;3.20;;;10.70;99.90;;;;;;5039493;28;20045;-61
2022/12/20 10:56:56;;;;;;;5.03;3.67;;;10.70;99.90;;;;;;5029340;28;20044;-62
2022/12/20 10:59:35;;;;;;;7.53;3.30;;;10.70;99.90;;;;;;5031863;28;20119;-61
2022/12/20 11:02:22;;;;;;;6.07;3.38;;;10.70;99.90;;;;;;5035545;28;20522;-60
2022/12/20 11:05:10;;;;;;;8.23;3.30;;;10.70;99.90;;;;;;5035241;28;20523;-61
2022/12/20 11:07:56;;;;;;;7.93;3.15;;;10.70;99.90;;;;;;5037182;28;20053;-61
2022/12/20 11:10:25;;;;;;;6.38;3.55;;;10.70;99.90;;;;;;5021111;28;20064;-60
2022/12/20 11:12:56;;;;;;;4.68;2.67;;;10.70;99.90;;;;;;5032791;28;20080;-62
2022/12/20 11:15:34;;;;;;;8.10;3.85;;;10.70;99.90;;;;;;5039620;28;20411;-60
2022/12/20 11:18:32;;;;;;;7.00;3.65;;;10.70;99.90;;;;;;5033030;28;20034;-62
2022/12/20 11:21:19;;;;;;;9.38;4.10;;;10.70;99.90;;;;;;5058371;28;20527;-59
2022/12/20 11:24:08;;;;;;;6.80;3.95;;;10.70;99.90;;;;;;5033049;28;20499;-60
2022/12/20 11:26:50;;;;;;;7.38;3.65;;;10.70;99.90;;;;;;5034623;28;20116;-60
2022/12/20 11:29:25;;;;;;;6.78;3.53;;;10.70;99.90;;;;;;5040156;28;20110;-60
2022/12/20 11:32:20;;;;;;;5.68;3.67;;;10.70;99.90;;;;;;5029488;28;20626;-61
2022/12/20 11:35:04;;;;;;;;;;;10.70;99.90;;;;;;5021686;28;20562;-60
2022/12/20 11:37:49;;;;;;;7.40;3.88;;;10.70;99.90;;;;;;5072682;28;19928;-60
2022/12/20 11:40:37;;;;;;;8.52;3.72;;;10.60;99.90;;;;;;5057084;28;20044;-62
2022/12/20 11:43:15;;;;;;;7.30;4.10;;;10.60;99.90;;;;;;5060042;28;20516;-59
2022/12/20 11:46:03;;;;;;;5.60;4.10;;;10.60;99.90;;;;;;5068319;28;20054;-62
2022/12/20 11:48:59;;;;;;;6.70;4.57;;;10.60;99.90;;;;;;5052585;28;20050;-60
2022/12/20 11:51:52;;;;;;;6.78;4.90;;;10.70;99.90;;;;;;5006865;28;20062;-59
2022/12/20 11:54:29;;;;;;;9.15;4.45;;;10.70;99.90;;;;;;5058193;28;20509;-60
2022/12/20 11:57:08;;;;;;;7.85;4.63;;;10.70;99.90;;;;;;5038758;28;20040;-62
2022/12/20 11:59:59;;;;;;;5.68;4.60;;;10.70;99.90;;;;;;5055718;28;20479;-61
2022/12/20 12:02:42;;;;;;;8.35;4.57;;;10.60;99.90;;;;;;5057725;28;20356;-61
2022/12/20 12:05:40;;;;;;;8.43;5.50;;;10.60;99.90;;;;;;5076777;28;20036;-59
2022/12/20 12:08:14;;;;;;;9.85;5.22;;;10.60;99.90;;;;;;5058138;28;20044;-60
2022/12/20 12:10:44;;;;;;;6.60;4.65;;;10.60;99.90;;;;;;5036099;28;20048;-61
2022/12/20 12:13:16;;;;;;;10.07;5.40;;;10.60;99.90;;;;;;5064630;28;20086;-61
2022/12/20 12:16:11;;;;;;;9.55;5.85;;;10.60;99.90;;;;;;5056570;28;20052;-61
2022/12/20 12:18:40;;;;;;;7.88;5.20;;;10.60;99.90;;;;;;5084337;28;20037;-62
2022/12/20 12:21:18;;;;;;;8.15;5.75;;;10.60;99.90;;;;;;5059978;28;20052;-59
2022/12/20 12:23:50;;;;;;;12.98;6.03;;;10.60;99.90;;;;;;5082294;28;20390;-61
2022/12/20 12:26:23;;;;;;;10.90;5.97;;;10.60;99.90;;;;;;5067934;28;20036;-60
2022/12/20 12:28:58;;;;;;;12.25;6.25;;;10.60;99.90;;;;;;5057838;28;20051;-59
2022/12/20 12:31:31;;;;;;;11.85;7.35;;;10.50;99.90;;;;;;5054828;28;20109;-58
2022/12/20 12:34:29;;;;;;;9.52;7.50;;;10.50;99.90;;;;;;5073479;28;20383;-59
2022/12/20 12:37:25;;;;;;;9.52;6.47;;;10.60;99.90;;;;;;5037656;28;20062;-62
2022/12/20 12:40:39;;;;;;;8.88;6.65;;;10.70;99.90;;;;;;5060489;28;20063;-61
2022/12/20 12:43:30;;;;;;;11.80;6.93;;;10.50;99.90;;;;;;5042228;28;20509;-60
2022/12/20 12:45:58;;;;;;;13.23;7.28;;;10.50;99.90;;;;;;5046426;28;20044;-58
2022/12/20 12:48:33;;;;;;;9.55;7.65;;;10.50;99.90;;;;;;5036462;28;20047;-59
2022/12/20 12:51:01;;;;;;;12.05;7.38;;;10.50;99.90;;;;;;5052910;28;20048;-61
2022/12/20 12:53:51;;;;;;;12.07;7.32;;;10.50;99.90;;;;;;5045076;28;20042;-60
2022/12/20 12:56:26;;;;;;;11.07;7.60;;;10.50;99.90;;;;;;5073516;28;20040;-61
2022/12/20 12:59:26;;;;;;;9.63;7.28;;;10.50;99.90;;;;;;5075100;28;20120;-61
2022/12/20 13:02:14;;;;;;;10.30;7.35;;;10.50;99.90;;;;;;5055192;28;20657;-62
2022/12/20 13:05:13;;;;;;;12.43;7.07;;;10.50;99.90;;;;;;5052298;28;20044;-61
2022/12/20 13:07:39;;;;;;;9.93;7.88;;;10.60;99.90;;;;;;5053024;28;20051;-61
2022/12/20 13:10:08;;;;;;;11.70;7.50;;;10.60;99.90;;;;;;5041163;28;20064;-61
2022/12/20 13:12:36;;;;;;;10.77;7.63;;;10.60;99.90;;;;;;5052149;28;20094;-60
2022/12/20 13:15:32;;;;;;;9.05;7.30;;;10.60;99.90;;;;;;5054045;28;20040;-61
2022/12/20 13:18:07;;;;;;;9.20;7.07;;;10.60;99.90;;;;;;4990725;28;20436;-61
2022/12/20 13:20:34;;;;;;;10.98;8.40;;;10.60;99.90;;;;;;5055887;28;20118;-61
2022/12/20 13:23:10;;;;;;;9.88;7.95;;;10.60;99.90;;;;;;5079911;28;20047;-60
2022/12/20 13:25:41;;;;;;;12.40;8.88;;;10.60;99.90;;;;;;5052496;28;20044;-59